createdAt,value
2023-04-12T00:02:56.183Z,11.67
2023-04-12T00:05:59.857Z,11.61
2023-04-12T00:09:04.027Z,11.57
2023-04-12T00:12:07.921Z,11.53
2023-04-12T00:15:12.382Z,11.31
2023-04-12T00:18:15.048Z,11.13
2023-04-12T00:21:19.521Z,11.23
2023-04-12T00:24:22.173Z,11.17
2023-04-12T00:27:25.750Z,11.13
2023-04-12T00:30:29.665Z,11.04
2023-04-12T00:33:32.277Z,10.88
2023-04-12T00:36:34.912Z,10.85
2023-04-12T00:39:37.508Z,10.80
2023-04-12T00:42:40.383Z,10.46
2023-04-12T00:45:44.720Z,10.22
2023-04-12T00:48:48.349Z,9.97
2023-04-12T00:51:51.318Z,9.70
2023-04-12T00:54:54.817Z,9.61
2023-04-12T00:57:57.798Z,9.44
2023-04-12T01:01:02.403Z,9.35
2023-04-12T01:04:05.738Z,9.29
2023-04-12T01:07:15.271Z,9.27
2023-04-12T01:10:27.585Z,9.21
2023-04-12T01:13:33.676Z,9.19
2023-04-12T01:16:41.636Z,9.20
2023-04-12T01:19:58.967Z,9.26
2023-04-12T01:23:19.260Z,9.28
2023-04-12T01:26:34.464Z,9.36
2023-04-12T01:29:38.754Z,9.31
2023-04-12T01:32:41.969Z,9.27
2023-04-12T01:35:45.612Z,9.31
2023-04-12T01:38:48.045Z,9.24
2023-04-12T01:41:50.697Z,9.27
2023-04-12T01:44:54.562Z,9.24
2023-04-12T01:47:57.552Z,9.35
2023-04-12T01:51:06.385Z,9.33
2023-04-12T01:54:11.857Z,9.34
2023-04-12T01:57:14.678Z,9.27
2023-04-12T02:00:19.528Z,9.27
2023-04-12T02:03:23.218Z,9.20
2023-04-12T02:06:26.246Z,9.22
2023-04-12T02:09:28.835Z,9.12
2023-04-12T02:12:31.562Z,9.09
2023-04-12T02:15:37.192Z,9.05
2023-04-12T02:18:41.526Z,8.96
2023-04-12T02:21:45.603Z,9.06
2023-04-12T02:24:48.155Z,9.06
2023-04-12T02:27:50.835Z,9.07
2023-04-12T02:30:54.919Z,9.11
2023-04-12T02:33:58.041Z,9.18
2023-04-12T02:37:00.876Z,9.23
2023-04-12T02:40:06.042Z,9.20
2023-04-12T02:43:09.071Z,9.18
2023-04-12T02:46:16.745Z,9.14
2023-04-12T02:49:19.374Z,9.12
2023-04-12T02:52:22.623Z,9.11
2023-04-12T02:55:25.833Z,9.19
2023-04-12T02:58:28.541Z,9.12
2023-04-12T03:01:33.772Z,9.06
2023-04-12T03:04:39.912Z,8.99
2023-04-12T03:07:43.436Z,8.98
2023-04-12T03:10:46.075Z,9.05
2023-04-12T03:13:48.708Z,9.04
2023-04-12T03:16:53.623Z,9.03
2023-04-12T03:19:58.041Z,9.03
2023-04-12T03:23:00.727Z,9.01
2023-04-12T03:26:03.801Z,9.05
2023-04-12T03:29:09.596Z,9.06
2023-04-12T03:32:15.064Z,9.10
2023-04-12T03:35:17.658Z,9.02
2023-04-12T03:38:20.325Z,9.02
2023-04-12T03:41:23.489Z,9.01
2023-04-12T03:44:26.920Z,9.03
2023-04-12T03:47:31.778Z,9.04
2023-04-12T03:50:42.041Z,9.00
2023-04-12T03:53:44.944Z,9.06
2023-04-12T03:56:47.598Z,9.05
2023-04-12T03:59:52.264Z,9.06
2023-04-12T04:03:03.665Z,9.06
2023-04-12T04:06:06.826Z,9.00
2023-04-12T04:09:09.432Z,8.90
2023-04-12T04:12:12.171Z,8.92
2023-04-12T04:15:15.547Z,8.99
2023-04-12T04:18:19.650Z,8.97
2023-04-12T04:21:23.746Z,9.04
2023-04-12T04:24:26.486Z,8.98
2023-04-12T04:27:30.707Z,8.87
2023-04-12T04:30:34.080Z,8.86
2023-04-12T04:33:38.949Z,8.96
2023-04-12T04:36:42.616Z,8.91
2023-04-12T04:39:45.124Z,8.79
2023-04-12T04:42:54.239Z,8.80
2023-04-12T04:45:57.132Z,8.81
2023-04-12T04:49:01.195Z,8.84
2023-04-12T04:52:04.320Z,8.79
2023-04-12T04:55:10.598Z,8.84
2023-04-12T04:58:14.365Z,8.90
2023-04-12T05:01:17.807Z,8.97
2023-04-12T05:04:21.964Z,8.99
2023-04-12T05:07:25.782Z,9.12
2023-04-12T05:10:28.317Z,9.05
2023-04-12T05:13:31.020Z,9.00
2023-04-12T05:16:33.678Z,9.08
2023-04-12T05:19:37.782Z,9.11
2023-04-12T05:22:40.494Z,9.03
2023-04-12T05:25:48.383Z,8.95
2023-04-12T05:28:51.031Z,8.96
2023-04-12T05:31:53.761Z,8.96
2023-04-12T05:34:57.642Z,8.90
2023-04-12T05:38:00.333Z,9.05
2023-04-12T05:41:04.227Z,9.09
2023-04-12T05:44:10.036Z,9.22
2023-04-12T05:47:13.198Z,9.31
2023-04-12T05:50:17.522Z,9.16
2023-04-12T05:53:20.106Z,9.37
2023-04-12T05:56:22.692Z,9.26
2023-04-12T05:59:25.528Z,9.22
2023-04-12T06:02:28.391Z,9.36
2023-04-12T06:05:32.504Z,9.38
2023-04-12T06:08:36.580Z,9.37
2023-04-12T06:11:39.960Z,9.51
2023-04-12T06:14:42.710Z,9.68
2023-04-12T06:17:45.327Z,9.70
2023-04-12T06:20:49.585Z,9.78
2023-04-12T06:23:52.238Z,9.83
2023-04-12T06:26:54.831Z,9.78
2023-04-12T06:29:57.605Z,9.98
2023-04-12T06:33:00.317Z,10.08
2023-04-12T06:36:04.612Z,10.20
2023-04-12T06:39:07.573Z,10.21
2023-04-12T06:42:11.240Z,10.27
2023-04-12T06:45:15.514Z,10.30
2023-04-12T06:48:18.217Z,10.16
2023-04-12T06:51:22.220Z,10.29
2023-04-12T06:54:25.112Z,10.33
2023-04-12T06:57:27.834Z,10.38
2023-04-12T07:00:30.501Z,10.64
2023-04-12T07:03:33.798Z,10.63
2023-04-12T07:06:37.939Z,10.64
2023-04-12T07:09:40.628Z,10.43
2023-04-12T07:12:43.338Z,10.72
2023-04-12T07:15:46.790Z,11.02
2023-04-12T07:18:49.798Z,10.83
2023-04-12T07:21:53.647Z,11.07
2023-04-12T07:24:56.256Z,11.13
2023-04-12T07:27:58.957Z,11.34
2023-04-12T07:31:01.474Z,11.59
2023-04-12T07:34:04.287Z,11.52
2023-04-12T07:37:08.340Z,11.49
2023-04-12T07:40:11.202Z,11.29
2023-04-12T07:43:13.913Z,11.71
2023-04-12T07:46:16.651Z,12.07
2023-04-12T07:49:19.473Z,12.13
2023-04-12T07:52:23.496Z,12.16
2023-04-12T07:55:26.046Z,11.92
2023-04-12T07:58:28.713Z,11.89
2023-04-12T08:01:31.409Z,11.78
2023-04-12T08:04:34.226Z,12.12
2023-04-12T08:07:38.113Z,12.57
2023-04-12T08:10:41.308Z,13.03
2023-04-12T08:13:43.962Z,12.94
2023-04-12T08:16:46.645Z,12.80
2023-04-12T08:19:49.254Z,12.86
2023-04-12T08:22:54.570Z,12.80
2023-04-12T08:26:03.171Z,12.75
2023-04-12T08:29:06.351Z,12.86
2023-04-12T08:32:09.586Z,12.89
2023-04-12T08:35:12.487Z,12.67
2023-04-12T08:38:16.421Z,12.57
2023-04-12T08:41:19.487Z,12.81
2023-04-12T08:44:34.832Z,12.84
2023-04-12T08:47:39.395Z,13.00
2023-04-12T08:50:44.446Z,12.87
2023-04-12T08:53:48.536Z,13.25
2023-04-12T08:56:53.098Z,13.27
2023-04-12T08:59:56.099Z,13.17
2023-04-12T09:02:58.724Z,12.88
2023-04-12T09:06:04.062Z,13.11
2023-04-12T09:09:08.377Z,13.23
2023-04-12T09:12:14.276Z,13.25
2023-04-12T09:15:18.307Z,13.33
2023-04-12T09:18:21.347Z,13.43
2023-04-12T09:21:23.988Z,13.30
2023-04-12T09:24:27.984Z,13.79
2023-04-12T09:27:30.737Z,14.46
2023-04-12T09:30:42.635Z,14.60
2023-04-12T09:33:46.071Z,15.40
2023-04-12T09:36:48.767Z,15.45
2023-04-12T09:40:00.158Z,15.67
2023-04-12T09:43:03.708Z,15.94
2023-04-12T09:46:11.091Z,16.14
2023-04-12T09:49:13.701Z,15.42
2023-04-12T09:52:16.872Z,14.76
2023-04-12T09:55:22.690Z,14.73
2023-04-12T09:58:26.639Z,15.25
2023-04-12T10:01:31.109Z,15.13
2023-04-12T10:04:34.191Z,15.63
2023-04-12T10:07:37.617Z,16.81
2023-04-12T10:10:41.673Z,17.27
2023-04-12T10:13:44.398Z,17.97
2023-04-12T10:16:48.100Z,18.18
2023-04-12T10:19:51.624Z,17.35
2023-04-12T10:22:54.134Z,17.66
2023-04-12T10:25:58.197Z,17.51
2023-04-12T10:29:26.662Z,18.27
2023-04-12T10:32:29.551Z,18.32
2023-04-12T10:35:45.906Z,18.29
2023-04-12T10:38:50.313Z,18.75
2023-04-12T10:42:18.572Z,19.37
2023-04-12T10:45:37.824Z,19.48
2023-04-12T10:48:41.780Z,19.22
2023-04-12T10:52:12.093Z,18.05
2023-04-12T10:55:32.691Z,18.37
2023-04-12T10:58:59.482Z,18.48
2023-04-12T11:02:13.432Z,17.36
2023-04-12T11:05:19.182Z,17.15
2023-04-12T11:08:21.860Z,17.49
2023-04-12T11:11:24.482Z,18.87
2023-04-12T11:14:31.476Z,19.39
2023-04-12T11:17:36.952Z,19.76
2023-04-12T11:20:41.443Z,18.10
2023-04-12T11:23:44.610Z,18.10
2023-04-12T11:26:48.003Z,17.82
2023-04-12T11:29:52.645Z,16.93
2023-04-12T11:32:55.564Z,17.23
2023-04-12T11:35:58.297Z,16.93
2023-04-12T11:39:01.671Z,17.61
2023-04-12T11:42:04.680Z,18.33
2023-04-12T11:45:15.869Z,18.28
2023-04-12T11:48:20.569Z,17.58
2023-04-12T11:51:25.054Z,17.35
2023-04-12T11:54:29.433Z,18.09
2023-04-12T11:57:32.083Z,17.95
2023-04-12T12:00:36.305Z,18.62
2023-04-12T12:03:39.129Z,17.81
2023-04-12T12:06:42.228Z,18.10
2023-04-12T12:09:45.793Z,18.12
2023-04-12T12:12:48.627Z,18.37
2023-04-12T12:15:54.229Z,18.50
2023-04-12T12:18:57.854Z,18.47
2023-04-12T12:22:14.316Z,18.17
2023-04-12T12:25:18.816Z,18.52
2023-04-12T12:28:24.747Z,18.95
2023-04-12T12:31:29.320Z,18.35
2023-04-12T12:34:34.011Z,18.64
2023-04-12T12:40:39.990Z,18.88
2023-04-12T12:43:45.924Z,20.58
2023-04-12T12:46:55.527Z,20.92
2023-04-12T12:50:06.345Z,20.81
2023-04-12T12:53:10.335Z,22.11
2023-04-12T12:56:13.913Z,21.03
2023-04-12T12:59:17.702Z,20.16
2023-04-12T13:02:22.106Z,19.15
2023-04-12T13:05:24.956Z,19.86
2023-04-12T13:08:28.155Z,20.41
2023-04-12T13:11:30.846Z,21.72
2023-04-12T13:14:33.500Z,22.24
2023-04-12T13:17:37.559Z,21.23
2023-04-12T13:20:40.347Z,19.38
2023-04-12T13:23:42.972Z,18.45
2023-04-12T13:26:46.039Z,18.03
2023-04-12T13:29:48.634Z,17.82
2023-04-12T13:32:52.797Z,17.72
2023-04-12T13:35:55.580Z,17.97
2023-04-12T13:38:58.310Z,18.92
2023-04-12T13:42:02.130Z,20.14
2023-04-12T13:45:05.379Z,22.19
2023-04-12T13:48:09.974Z,22.32
2023-04-12T13:51:12.685Z,22.35
2023-04-12T13:54:17.322Z,20.41
2023-04-12T13:57:20.026Z,19.83
2023-04-12T14:00:22.744Z,18.18
2023-04-12T14:03:26.928Z,18.00
2023-04-12T14:06:30.108Z,18.35
2023-04-12T14:09:33.802Z,17.91
2023-04-12T14:12:36.546Z,18.41
2023-04-12T14:15:39.212Z,18.71
2023-04-12T14:18:43.209Z,22.38
2023-04-12T14:21:46.023Z,24.10
2023-04-12T14:24:48.783Z,25.04
2023-04-12T14:27:51.974Z,26.74
2023-04-12T14:30:54.453Z,23.82
2023-04-12T14:33:58.670Z,20.59
2023-04-12T14:37:01.556Z,20.07
2023-04-12T14:40:06.390Z,21.79
2023-04-12T14:43:09.006Z,23.62
2023-04-12T14:46:11.836Z,23.38
2023-04-12T14:49:16.002Z,21.47
2023-04-12T14:52:18.783Z,21.03
2023-04-12T14:55:21.361Z,20.34
2023-04-12T14:58:23.936Z,19.45
2023-04-12T15:01:27.500Z,19.11
2023-04-12T15:04:31.636Z,19.19
2023-04-12T15:07:34.550Z,18.62
2023-04-12T15:10:37.452Z,18.42
2023-04-12T15:13:41.267Z,18.11
2023-04-12T15:16:43.970Z,18.03
2023-04-12T15:19:48.018Z,16.96
2023-04-12T15:22:50.671Z,14.14
2023-04-12T15:25:59.870Z,11.36
2023-04-12T15:29:02.540Z,11.17
2023-04-12T15:32:05.306Z,10.84
2023-04-12T15:35:25.283Z,11.02
2023-04-12T15:38:29.147Z,10.97
2023-04-12T15:41:34.990Z,11.30
2023-04-12T15:44:37.531Z,11.27
2023-04-12T15:47:40.752Z,11.35
2023-04-12T15:50:44.988Z,11.22
2023-04-12T15:53:47.777Z,11.73
2023-04-12T15:56:50.708Z,12.12
2023-04-12T15:59:55.446Z,12.56
2023-04-12T16:02:58.497Z,14.27
2023-04-12T16:06:03.613Z,14.32
2023-04-12T16:09:06.826Z,14.65
2023-04-12T16:12:09.676Z,16.66
2023-04-12T16:15:12.886Z,16.11
2023-04-12T16:18:16.005Z,15.56
2023-04-12T16:21:22.171Z,15.10
2023-04-12T16:24:24.848Z,14.77
2023-04-12T16:27:29.427Z,14.10
2023-04-12T16:30:32.858Z,14.14
2023-04-12T16:33:35.364Z,14.31
2023-04-12T16:36:39.280Z,14.56
2023-04-12T16:39:43.639Z,14.28
2023-04-12T16:42:46.489Z,14.08
2023-04-12T16:45:50.002Z,14.20
2023-04-12T16:48:52.420Z,14.38
2023-04-12T16:51:56.563Z,14.37
2023-04-12T16:54:59.187Z,14.01
2023-04-12T16:58:02.519Z,13.82
2023-04-12T17:01:05.530Z,13.64
2023-04-12T17:04:08.267Z,13.58
2023-04-12T17:07:12.216Z,13.48
2023-04-12T17:10:17.161Z,13.40
2023-04-12T17:13:20.611Z,13.30
2023-04-12T17:16:23.179Z,13.20
2023-04-12T17:19:25.956Z,13.11
2023-04-12T17:22:29.993Z,13.04
2023-04-12T17:25:33.094Z,13.00
2023-04-12T17:28:38.822Z,12.94
2023-04-12T17:31:41.912Z,12.89
2023-04-12T17:34:44.832Z,12.80
2023-04-12T17:37:49.035Z,12.79
2023-04-12T17:40:51.809Z,12.82
2023-04-12T17:43:54.673Z,12.77
2023-04-12T17:46:57.429Z,12.68
2023-04-12T17:50:00.079Z,12.65
2023-04-12T17:53:03.964Z,12.65
2023-04-12T17:56:08.055Z,12.67
2023-04-12T17:59:11.362Z,12.77
2023-04-12T18:02:16.280Z,12.98
2023-04-12T18:05:19.518Z,13.06
2023-04-12T18:08:24.953Z,12.61
2023-04-12T18:11:28.312Z,12.30
2023-04-12T18:14:31.162Z,12.05
2023-04-12T18:17:33.728Z,11.81
2023-04-12T18:20:36.556Z,11.75
2023-04-12T18:23:40.518Z,11.77
2023-04-12T18:26:43.270Z,11.70
2023-04-12T18:29:45.892Z,11.63
2023-04-12T18:32:48.544Z,11.55
2023-04-12T18:35:51.764Z,11.49
2023-04-12T18:38:55.692Z,11.38
2023-04-12T18:41:58.319Z,11.31
2023-04-12T18:45:01.760Z,11.27
2023-04-12T18:48:04.576Z,11.24
2023-04-12T18:51:07.460Z,11.23
2023-04-12T18:54:13.748Z,11.23
2023-04-12T18:57:16.906Z,11.34
2023-04-12T19:00:20.499Z,11.37
2023-04-12T19:03:23.022Z,11.33
2023-04-12T19:06:25.650Z,11.43
2023-04-12T19:09:29.652Z,11.42
2023-04-12T19:12:33.081Z,11.44
2023-04-12T19:15:35.676Z,11.45
2023-04-12T19:18:38.298Z,11.37
2023-04-12T19:21:40.832Z,11.43
2023-04-12T19:24:44.976Z,11.39
2023-04-12T19:27:47.599Z,11.44
2023-04-12T19:30:50.278Z,11.47
2023-04-12T19:33:52.937Z,11.39
2023-04-12T19:36:55.592Z,11.41
2023-04-12T19:39:59.592Z,11.39
2023-04-12T19:43:02.795Z,11.42
2023-04-12T19:46:05.716Z,11.40
2023-04-12T19:49:09.596Z,11.24
2023-04-12T19:52:15.206Z,11.33
2023-04-12T19:55:21.302Z,11.40
2023-04-12T19:58:24.903Z,11.30
2023-04-12T20:01:27.710Z,11.27
2023-04-12T20:04:30.893Z,11.34
2023-04-12T20:07:34.066Z,11.30
2023-04-12T20:10:38.951Z,11.32
2023-04-12T20:13:41.472Z,11.37
2023-04-12T20:16:45.363Z,11.32
2023-04-12T20:19:48.367Z,11.36
2023-04-12T20:22:53.026Z,11.43
2023-04-12T20:25:57.504Z,11.47
2023-04-12T20:29:01.245Z,11.36
2023-04-12T20:32:04.255Z,11.39
2023-04-12T20:35:08.669Z,11.41
2023-04-12T20:38:11.704Z,11.48
2023-04-12T20:41:15.620Z,11.43
2023-04-12T20:44:19.336Z,11.60
2023-04-12T20:47:22.409Z,11.59
2023-04-12T20:50:25.297Z,11.32
2023-04-12T20:53:27.886Z,10.72
2023-04-12T20:56:31.921Z,9.38
2023-04-12T20:59:35.858Z,8.55
2023-04-12T21:02:38.745Z,8.43
2023-04-12T21:05:41.970Z,8.40
2023-04-12T21:08:46.827Z,8.32
2023-04-12T21:11:52.251Z,8.43
2023-04-12T21:14:57.544Z,8.52
2023-04-12T21:18:00.186Z,8.52
2023-04-12T21:21:03.715Z,8.38
2023-04-12T21:24:07.084Z,8.43
2023-04-12T21:27:11.373Z,8.41
2023-04-12T21:30:14.702Z,8.44
2023-04-12T21:33:24.609Z,8.47
2023-04-12T21:36:28.623Z,8.44
2023-04-12T21:39:31.514Z,8.44
2023-04-12T21:42:36.449Z,8.45
2023-04-12T21:45:39.056Z,8.59
2023-04-12T21:48:41.557Z,8.62
2023-04-12T21:51:46.107Z,8.71
2023-04-12T21:54:48.896Z,8.69
2023-04-12T21:57:52.970Z,8.77
2023-04-12T22:00:55.627Z,8.92
2023-04-12T22:03:58.603Z,8.98
2023-04-12T22:07:03.817Z,9.05
2023-04-12T22:10:09.201Z,9.15
2023-04-12T22:13:13.128Z,9.23
2023-04-12T22:16:16.788Z,9.26
2023-04-12T22:19:19.705Z,9.27
2023-04-12T22:22:22.290Z,9.26
2023-04-12T22:25:25.129Z,9.23
2023-04-12T22:28:29.102Z,9.29
2023-04-12T22:31:31.996Z,9.28
2023-04-12T22:34:34.832Z,9.24
2023-04-12T22:37:39.005Z,9.28
2023-04-12T22:40:41.594Z,9.29
2023-04-12T22:43:47.670Z,9.23
2023-04-12T22:46:50.496Z,9.14
2023-04-12T22:49:54.656Z,9.07
2023-04-12T22:52:57.753Z,8.92
2023-04-12T22:56:00.410Z,8.82
2023-04-12T22:59:05.193Z,8.84
2023-04-12T23:02:07.943Z,8.80
2023-04-12T23:05:12.232Z,8.63
2023-04-12T23:08:15.750Z,8.61
2023-04-12T23:11:18.372Z,8.55
2023-04-12T23:14:22.700Z,8.47
2023-04-12T23:17:26.652Z,8.48
2023-04-12T23:20:30.132Z,8.32
2023-04-12T23:23:32.725Z,8.20
2023-04-12T23:26:35.929Z,8.20
2023-04-12T23:29:40.725Z,8.12
2023-04-12T23:32:43.367Z,8.00
2023-04-12T23:35:47.540Z,7.96
2023-04-12T23:38:55.420Z,7.76
2023-04-12T23:41:58.187Z,7.75
2023-04-12T23:45:03.638Z,7.89
2023-04-12T23:48:06.860Z,7.93
2023-04-12T23:51:09.546Z,7.99
2023-04-12T23:54:12.154Z,8.02
2023-04-12T23:57:16.227Z,7.99
